North Branch, MN (55056)

5:37 PM CST on February 27, 2015 (GMT -0600)
Amador Township | Change Station
CLOSE
Current Station
Personal Weather Station
Location: Almelund, MN
Elevation: 880 ft
Nearby Weather Stations

Elev 880 ft 45.55 °N, 92.80 °W | Updated 22 seconds ago

Clear
Clear
14.3 °F
Feels Like 4 °F
N
6.9
Wind Variable Wind from SW
Gusts 6.9 mph

Today
High -- | Low -- °F
--% Chance of Precip.
Yesterday
High -- | Low -- °F
Precip. -- in
6:53 AM 5:55 PM
Waxing Gibbous, 72% visible
Pressure 30.46 in
Visibility 10.0 miles
Clouds Clear
Windchill 4 °F
Dew Point -3 °F
Humidity 45%
Rainfall 0.00 in
Snow Depth Not available.
UV 0 out of 12
Pollen .40 out of 12
Air Quality Not available.
Flu Activity Not available.
METAR KROS 272315Z AUTO 21003KT 10SM CLR M09/M19 A3046 RMK AO2 T10881190

More Conditions Fewer Conditions

Pressure 30.46 in
Visibility 10.0 miles
Clouds Clear
Windchill 4 °F
Dew Point -3 °F
Humidity 45%
Rainfall 0.00 in
Snow Depth Not available.
UV 0 out of 12
Pollen .40 out of 12
Air Quality Not available.
Flu Activity Not available.
METAR KROS 272315Z AUTO 21003KT 10SM CLR M09/M19 A3046 RMK AO2 T10881190

More Conditions Fewer Conditions

10-Day Weather Forecast

Almanac

Astronomy

Feb. 27, 2015 Rise Set
Actual Time
Civil Twilight
Nautical Twilight
Astronomical Twilight
Moon
Length of Visible Light
Length of Day
Tomorrow will be .
, % of the Moon is Illuminated

Today's Extremes

State Highs State Lows

Community

WunderPhotos

Upload Photos

1,800,878 photos uploaded!

WunderBlogs® & News

Nearby

Air Quality

  Air Quality AQ Index Pollutant
Not available.

Snow Depth

Station Depth Elevation

Earthquake Activity

City Distance Mag. Time & Date
Minimum magnitude displayed is 2.5.

Coastal Water Temperatures

Place Temperature

Nearby Weather Stations